sensor_id;sensor_type;location;lat;lon;timestamp;temperature;humidity
21355;DHT22;10835;50.148;19.760;2023-04-28T00:00:09;20.20;40.00
21355;DHT22;10835;50.148;19.760;2023-04-28T00:02:37;19.80;40.30
21355;DHT22;10835;50.148;19.760;2023-04-28T00:05:06;20.30;41.30
21355;DHT22;10835;50.148;19.760;2023-04-28T00:07:35;20.60;40.00
21355;DHT22;10835;50.148;19.760;2023-04-28T00:10:04;20.70;40.10
21355;DHT22;10835;50.148;19.760;2023-04-28T00:12:32;20.90;40.00
21355;DHT22;10835;50.148;19.760;2023-04-28T00:15:02;20.90;39.40
21355;DHT22;10835;50.148;19.760;2023-04-28T00:17:31;21.00;39.70
21355;DHT22;10835;50.148;19.760;2023-04-28T00:20:00;21.10;40.40
21355;DHT22;10835;50.148;19.760;2023-04-28T00:22:28;21.10;39.30
21355;DHT22;10835;50.148;19.760;2023-04-28T00:24:57;21.20;39.20
21355;DHT22;10835;50.148;19.760;2023-04-28T00:27:25;21.20;39.80
21355;DHT22;10835;50.148;19.760;2023-04-28T00:29:53;21.30;38.80
21355;DHT22;10835;50.148;19.760;2023-04-28T00:32:23;21.20;39.20
21355;DHT22;10835;50.148;19.760;2023-04-28T00:34:51;21.20;39.50
21355;DHT22;10835;50.148;19.760;2023-04-28T00:37:20;20.50;39.50
21355;DHT22;10835;50.148;19.760;2023-04-28T00:39:48;20.80;39.80
21355;DHT22;10835;50.148;19.760;2023-04-28T00:42:21;21.00;40.70
21355;DHT22;10835;50.148;19.760;2023-04-28T00:44:49;21.00;39.60
21355;DHT22;10835;50.148;19.760;2023-04-28T00:47:17;21.00;39.60
21355;DHT22;10835;50.148;19.760;2023-04-28T00:49:47;20.60;39.60
21355;DHT22;10835;50.148;19.760;2023-04-28T00:52:16;20.50;41.20
21355;DHT22;10835;50.148;19.760;2023-04-28T00:54:45;20.40;40.40
21355;DHT22;10835;50.148;19.760;2023-04-28T00:57:14;20.50;40.50
21355;DHT22;10835;50.148;19.760;2023-04-28T00:59:42;20.40;40.50
21355;DHT22;10835;50.148;19.760;2023-04-28T01:02:10;20.70;40.80
21355;DHT22;10835;50.148;19.760;2023-04-28T01:04:44;20.80;40.10
21355;DHT22;10835;50.148;19.760;2023-04-28T01:07:15;20.90;40.10
21355;DHT22;10835;50.148;19.760;2023-04-28T01:09:44;20.90;40.20
21355;DHT22;10835;50.148;19.760;2023-04-28T01:12:16;21.00;40.30
21355;DHT22;10835;50.148;19.760;2023-04-28T01:14:48;21.00;39.60
21355;DHT22;10835;50.148;19.760;2023-04-28T01:17:17;21.10;38.90
21355;DHT22;10835;50.148;19.760;2023-04-28T01:19:46;21.00;39.50
21355;DHT22;10835;50.148;19.760;2023-04-28T01:22:16;20.70;39.80
21355;DHT22;10835;50.148;19.760;2023-04-28T01:24:46;20.90;39.00
21355;DHT22;10835;50.148;19.760;2023-04-28T01:27:15;20.90;39.20
21355;DHT22;10835;50.148;19.760;2023-04-28T01:29:43;21.00;38.80
21355;DHT22;10835;50.148;19.760;2023-04-28T01:32:12;21.10;39.10
21355;DHT22;10835;50.148;19.760;2023-04-28T01:34:40;21.10;38.60
21355;DHT22;10835;50.148;19.760;2023-04-28T01:37:08;20.90;39.00
21355;DHT22;10835;50.148;19.760;2023-04-28T01:39:36;20.70;39.40
21355;DHT22;10835;50.148;19.760;2023-04-28T01:42:06;20.70;39.40
21355;DHT22;10835;50.148;19.760;2023-04-28T01:44:34;20.80;39.70
21355;DHT22;10835;50.148;19.760;2023-04-28T01:47:02;20.90;39.20
21355;DHT22;10835;50.148;19.760;2023-04-28T01:49:34;20.90;39.20
21355;DHT22;10835;50.148;19.760;2023-04-28T01:52:02;20.80;39.30
21355;DHT22;10835;50.148;19.760;2023-04-28T01:54:31;20.70;39.60
21355;DHT22;10835;50.148;19.760;2023-04-28T01:56:59;21.00;39.40
21355;DHT22;10835;50.148;19.760;2023-04-28T01:59:29;21.00;39.60
21355;DHT22;10835;50.148;19.760;2023-04-28T02:01:58;21.00;39.00
21355;DHT22;10835;50.148;19.760;2023-04-28T02:04:26;21.10;39.10
21355;DHT22;10835;50.148;19.760;2023-04-28T02:06:54;21.20;39.70
21355;DHT22;10835;50.148;19.760;2023-04-28T02:09:23;21.20;39.60
21355;DHT22;10835;50.148;19.760;2023-04-28T02:11:51;20.90;39.30
21355;DHT22;10835;50.148;19.760;2023-04-28T02:14:20;21.00;39.60
21355;DHT22;10835;50.148;19.760;2023-04-28T02:16:51;21.10;39.20
21355;DHT22;10835;50.148;19.760;2023-04-28T02:19:19;21.00;39.00
21355;DHT22;10835;50.148;19.760;2023-04-28T02:21:47;21.00;39.20
21355;DHT22;10835;50.148;19.760;2023-04-28T02:24:15;20.90;39.20
21355;DHT22;10835;50.148;19.760;2023-04-28T02:26:44;20.80;39.40
21355;DHT22;10835;50.148;19.760;2023-04-28T02:29:14;20.90;39.70
21355;DHT22;10835;50.148;19.760;2023-04-28T02:31:42;20.90;39.80
21355;DHT22;10835;50.148;19.760;2023-04-28T02:34:13;20.80;39.80
21355;DHT22;10835;50.148;19.760;2023-04-28T02:36:41;20.20;39.90
21355;DHT22;10835;50.148;19.760;2023-04-28T02:39:10;20.00;40.90
21355;DHT22;10835;50.148;19.760;2023-04-28T02:41:38;20.20;41.10
21355;DHT22;10835;50.148;19.760;2023-04-28T02:44:06;20.40;41.00
21355;DHT22;10835;50.148;19.760;2023-04-28T02:46:34;20.50;41.10
21355;DHT22;10835;50.148;19.760;2023-04-28T02:49:06;20.30;40.40
21355;DHT22;10835;50.148;19.760;2023-04-28T02:51:35;20.10;40.70
21355;DHT22;10835;50.148;19.760;2023-04-28T02:54:03;20.10;40.90
21355;DHT22;10835;50.148;19.760;2023-04-28T02:56:32;20.20;40.80
21355;DHT22;10835;50.148;19.760;2023-04-28T02:59:02;20.10;40.50
21355;DHT22;10835;50.148;19.760;2023-04-28T03:01:30;20.20;40.60
21355;DHT22;10835;50.148;19.760;2023-04-28T03:03:58;20.40;40.80
21355;DHT22;10835;50.148;19.760;2023-04-28T03:06:27;20.30;40.20
21355;DHT22;10835;50.148;19.760;2023-04-28T03:08:56;20.40;39.90
21355;DHT22;10835;50.148;19.760;2023-04-28T03:11:26;20.50;40.50
21355;DHT22;10835;50.148;19.760;2023-04-28T03:13:54;20.50;40.10
21355;DHT22;10835;50.148;19.760;2023-04-28T03:16:22;20.60;40.30
21355;DHT22;10835;50.148;19.760;2023-04-28T03:18:51;20.70;40.30
21355;DHT22;10835;50.148;19.760;2023-04-28T03:21:19;20.60;40.10
21355;DHT22;10835;50.148;19.760;2023-04-28T03:23:47;20.50;39.60
21355;DHT22;10835;50.148;19.760;2023-04-28T03:26:17;20.60;40.00
21355;DHT22;10835;50.148;19.760;2023-04-28T03:28:46;20.50;39.70
21355;DHT22;10835;50.148;19.760;2023-04-28T03:31:14;20.60;39.60
21355;DHT22;10835;50.148;19.760;2023-04-28T03:33:43;20.50;39.60
21355;DHT22;10835;50.148;19.760;2023-04-28T03:36:15;20.00;40.10
21355;DHT22;10835;50.148;19.760;2023-04-28T03:38:46;20.00;40.30
21355;DHT22;10835;50.148;19.760;2023-04-28T03:41:16;20.10;40.30
21355;DHT22;10835;50.148;19.760;2023-04-28T03:44:06;20.00;40.20
21355;DHT22;10835;50.148;19.760;2023-04-28T03:46:44;20.00;40.40
21355;DHT22;10835;50.148;19.760;2023-04-28T03:49:12;20.00;40.00
21355;DHT22;10835;50.148;19.760;2023-04-28T03:51:41;19.70;40.30
21355;DHT22;10835;50.148;19.760;2023-04-28T03:54:10;19.70;40.70
21355;DHT22;10835;50.148;19.760;2023-04-28T03:56:39;19.70;40.30
21355;DHT22;10835;50.148;19.760;2023-04-28T03:59:08;19.60;41.00
21355;DHT22;10835;50.148;19.760;2023-04-28T04:01:39;19.80;40.80
21355;DHT22;10835;50.148;19.760;2023-04-28T04:04:07;19.90;40.70
21355;DHT22;10835;50.148;19.760;2023-04-28T04:06:36;19.90;40.50
21355;DHT22;10835;50.148;19.760;2023-04-28T04:09:04;19.90;40.30
21355;DHT22;10835;50.148;19.760;2023-04-28T04:11:33;19.90;40.30
21355;DHT22;10835;50.148;19.760;2023-04-28T04:14:02;19.90;40.20
21355;DHT22;10835;50.148;19.760;2023-04-28T04:16:32;19.90;40.20
21355;DHT22;10835;50.148;19.760;2023-04-28T04:19:00;19.90;40.40
21355;DHT22;10835;50.148;19.760;2023-04-28T04:21:35;20.00;40.40
21355;DHT22;10835;50.148;19.760;2023-04-28T04:24:03;20.00;40.50
21355;DHT22;10835;50.148;19.760;2023-04-28T04:26:32;20.20;40.50
21355;DHT22;10835;50.148;19.760;2023-04-28T04:29:09;20.30;40.80
21355;DHT22;10835;50.148;19.760;2023-04-28T04:31:37;20.50;40.10
21355;DHT22;10835;50.148;19.760;2023-04-28T04:34:06;20.70;39.80
21355;DHT22;10835;50.148;19.760;2023-04-28T04:36:34;20.80;39.50
21355;DHT22;10835;50.148;19.760;2023-04-28T04:39:02;20.70;39.40
21355;DHT22;10835;50.148;19.760;2023-04-28T04:41:31;20.90;39.50
21355;DHT22;10835;50.148;19.760;2023-04-28T04:44:17;21.10;39.40
21355;DHT22;10835;50.148;19.760;2023-04-28T04:46:48;21.00;38.90
21355;DHT22;10835;50.148;19.760;2023-04-28T04:49:21;21.00;39.10
21355;DHT22;10835;50.148;19.760;2023-04-28T04:51:50;21.10;39.00
21355;DHT22;10835;50.148;19.760;2023-04-28T04:54:18;21.00;38.90
21355;DHT22;10835;50.148;19.760;2023-04-28T04:56:47;21.20;38.80
21355;DHT22;10835;50.148;19.760;2023-04-28T04:59:25;21.30;38.50
21355;DHT22;10835;50.148;19.760;2023-04-28T05:02:00;21.40;38.20
21355;DHT22;10835;50.148;19.760;2023-04-28T05:04:28;21.70;39.10
21355;DHT22;10835;50.148;19.760;2023-04-28T05:07:00;22.10;38.30
21355;DHT22;10835;50.148;19.760;2023-04-28T05:09:28;22.50;37.00
21355;DHT22;10835;50.148;19.760;2023-04-28T05:11:59;22.80;37.40
21355;DHT22;10835;50.148;19.760;2023-04-28T05:14:30;23.10;36.70
21355;DHT22;10835;50.148;19.760;2023-04-28T05:16:58;23.40;35.90
21355;DHT22;10835;50.148;19.760;2023-04-28T05:19:32;23.70;36.60
21355;DHT22;10835;50.148;19.760;2023-04-28T05:22:01;24.00;36.50
21355;DHT22;10835;50.148;19.760;2023-04-28T05:24:30;24.30;35.40
21355;DHT22;10835;50.148;19.760;2023-04-28T05:26:58;24.50;35.10
21355;DHT22;10835;50.148;19.760;2023-04-28T05:29:27;24.60;35.40
21355;DHT22;10835;50.148;19.760;2023-04-28T05:31:57;24.90;33.90
21355;DHT22;10835;50.148;19.760;2023-04-28T05:34:25;24.90;34.10
21355;DHT22;10835;50.148;19.760;2023-04-28T05:36:54;25.00;33.10
21355;DHT22;10835;50.148;19.760;2023-04-28T05:39:25;25.10;32.80
21355;DHT22;10835;50.148;19.760;2023-04-28T05:41:55;25.20;33.60
21355;DHT22;10835;50.148;19.760;2023-04-28T05:44:24;25.10;33.30
21355;DHT22;10835;50.148;19.760;2023-04-28T05:46:52;25.20;31.40
21355;DHT22;10835;50.148;19.760;2023-04-28T05:49:26;25.30;33.30
21355;DHT22;10835;50.148;19.760;2023-04-28T05:51:54;25.30;33.30
21355;DHT22;10835;50.148;19.760;2023-04-28T05:54:22;25.50;32.70
21355;DHT22;10835;50.148;19.760;2023-04-28T05:56:53;25.50;31.80
21355;DHT22;10835;50.148;19.760;2023-04-28T05:59:23;25.50;31.80
21355;DHT22;10835;50.148;19.760;2023-04-28T06:01:51;25.50;32.20
21355;DHT22;10835;50.148;19.760;2023-04-28T06:04:19;25.60;30.50
21355;DHT22;10835;50.148;19.760;2023-04-28T06:06:50;25.60;30.50
21355;DHT22;10835;50.148;19.760;2023-04-28T06:09:20;25.70;30.40
21355;DHT22;10835;50.148;19.760;2023-04-28T06:11:48;25.70;30.80
21355;DHT22;10835;50.148;19.760;2023-04-28T06:14:16;25.80;30.90
21355;DHT22;10835;50.148;19.760;2023-04-28T06:16:45;25.80;30.90
21355;DHT22;10835;50.148;19.760;2023-04-28T06:19:14;25.30;31.50
21355;DHT22;10835;50.148;19.760;2023-04-28T06:21:45;25.70;30.90
21355;DHT22;10835;50.148;19.760;2023-04-28T06:24:17;25.80;31.20
21355;DHT22;10835;50.148;19.760;2023-04-28T06:26:46;25.90;31.40
21355;DHT22;10835;50.148;19.760;2023-04-28T06:29:14;25.80;30.70
21355;DHT22;10835;50.148;19.760;2023-04-28T06:31:45;26.00;30.00
21355;DHT22;10835;50.148;19.760;2023-04-28T06:34:14;26.00;32.00
21355;DHT22;10835;50.148;19.760;2023-04-28T06:36:42;26.00;30.80
21355;DHT22;10835;50.148;19.760;2023-04-28T06:39:10;26.00;31.00
21355;DHT22;10835;50.148;19.760;2023-04-28T06:41:40;26.20;32.10
21355;DHT22;10835;50.148;19.760;2023-04-28T06:44:10;26.30;31.20
21355;DHT22;10835;50.148;19.760;2023-04-28T06:46:38;26.30;30.40
21355;DHT22;10835;50.148;19.760;2023-04-28T06:49:08;26.50;30.60
21355;DHT22;10835;50.148;19.760;2023-04-28T06:51:37;26.60;29.80
21355;DHT22;10835;50.148;19.760;2023-04-28T06:54:05;26.60;30.80
21355;DHT22;10835;50.148;19.760;2023-04-28T06:56:34;26.70;29.90
21355;DHT22;10835;50.148;19.760;2023-04-28T06:59:04;26.70;30.50
21355;DHT22;10835;50.148;19.760;2023-04-28T07:01:34;26.50;30.60
21355;DHT22;10835;50.148;19.760;2023-04-28T07:04:03;26.10;31.30
21355;DHT22;10835;50.148;19.760;2023-04-28T07:06:34;26.50;31.10
21355;DHT22;10835;50.148;19.760;2023-04-28T07:09:02;26.70;31.10
21355;DHT22;10835;50.148;19.760;2023-04-28T07:11:30;26.60;30.50
21355;DHT22;10835;50.148;19.760;2023-04-28T07:13:59;26.90;30.80
21355;DHT22;10835;50.148;19.760;2023-04-28T07:16:29;27.00;30.00
21355;DHT22;10835;50.148;19.760;2023-04-28T07:18:57;27.00;30.80
21355;DHT22;10835;50.148;19.760;2023-04-28T07:21:25;27.10;29.80
21355;DHT22;10835;50.148;19.760;2023-04-28T07:23:54;27.10;30.30
21355;DHT22;10835;50.148;19.760;2023-04-28T07:26:23;27.10;29.70
21355;DHT22;10835;50.148;19.760;2023-04-28T07:28:51;26.80;30.70
21355;DHT22;10835;50.148;19.760;2023-04-28T07:31:19;26.80;30.20
21355;DHT22;10835;50.148;19.760;2023-04-28T07:33:49;26.30;30.40
21355;DHT22;10835;50.148;19.760;2023-04-28T07:36:20;26.30;30.40
21355;DHT22;10835;50.148;19.760;2023-04-28T07:38:48;26.70;30.00
21355;DHT22;10835;50.148;19.760;2023-04-28T07:41:17;26.90;29.60
21355;DHT22;10835;50.148;19.760;2023-04-28T07:43:45;27.10;28.50
21355;DHT22;10835;50.148;19.760;2023-04-28T07:46:14;27.40;29.50
21355;DHT22;10835;50.148;19.760;2023-04-28T07:48:42;27.50;29.70
21355;DHT22;10835;50.148;19.760;2023-04-28T07:51:12;27.30;29.40
21355;DHT22;10835;50.148;19.760;2023-04-28T07:53:40;27.50;30.00
21355;DHT22;10835;50.148;19.760;2023-04-28T07:56:08;27.60;29.50
21355;DHT22;10835;50.148;19.760;2023-04-28T07:58:38;27.60;28.30
21355;DHT22;10835;50.148;19.760;2023-04-28T08:01:06;27.50;29.70
21355;DHT22;10835;50.148;19.760;2023-04-28T08:03:34;27.50;27.60
21355;DHT22;10835;50.148;19.760;2023-04-28T08:06:03;27.60;27.60
21355;DHT22;10835;50.148;19.760;2023-04-28T08:08:33;27.30;26.80
21355;DHT22;10835;50.148;19.760;2023-04-28T08:11:01;26.60;27.10
21355;DHT22;10835;50.148;19.760;2023-04-28T08:13:33;26.10;27.40
21355;DHT22;10835;50.148;19.760;2023-04-28T08:16:01;26.20;28.20
21355;DHT22;10835;50.148;19.760;2023-04-28T08:18:29;26.10;27.50
21355;DHT22;10835;50.148;19.760;2023-04-28T08:20:59;26.10;27.20
21355;DHT22;10835;50.148;19.760;2023-04-28T08:23:28;26.00;27.50
21355;DHT22;10835;50.148;19.760;2023-04-28T08:25:59;26.50;27.70
21355;DHT22;10835;50.148;19.760;2023-04-28T08:28:27;26.90;26.60
21355;DHT22;10835;50.148;19.760;2023-04-28T08:30:55;26.50;27.00
21355;DHT22;10835;50.148;19.760;2023-04-28T08:33:24;26.30;27.30
21355;DHT22;10835;50.148;19.760;2023-04-28T08:35:52;26.40;26.40
21355;DHT22;10835;50.148;19.760;2023-04-28T08:38:22;26.00;27.00
21355;DHT22;10835;50.148;19.760;2023-04-28T08:40:51;25.30;28.40
21355;DHT22;10835;50.148;19.760;2023-04-28T08:43:20;25.60;27.80
21355;DHT22;10835;50.148;19.760;2023-04-28T08:45:50;25.70;26.70
21355;DHT22;10835;50.148;19.760;2023-04-28T08:48:19;26.30;26.60
21355;DHT22;10835;50.148;19.760;2023-04-28T08:50:49;26.10;27.20
21355;DHT22;10835;50.148;19.760;2023-04-28T08:53:22;26.50;28.10
21355;DHT22;10835;50.148;19.760;2023-04-28T08:55:53;26.90;26.30
21355;DHT22;10835;50.148;19.760;2023-04-28T08:58:25;26.60;26.40
21355;DHT22;10835;50.148;19.760;2023-04-28T09:00:53;25.70;26.30
21355;DHT22;10835;50.148;19.760;2023-04-28T09:03:22;25.80;26.70
21355;DHT22;10835;50.148;19.760;2023-04-28T09:05:50;25.40;27.00
21355;DHT22;10835;50.148;19.760;2023-04-28T09:08:18;25.30;27.30
21355;DHT22;10835;50.148;19.760;2023-04-28T09:10:47;25.70;27.90
21355;DHT22;10835;50.148;19.760;2023-04-28T09:13:25;25.70;27.60
21355;DHT22;10835;50.148;19.760;2023-04-28T09:15:59;25.80;26.00
21355;DHT22;10835;50.148;19.760;2023-04-28T09:18:28;25.60;26.30
21355;DHT22;10835;50.148;19.760;2023-04-28T09:21:05;25.60;26.10
21355;DHT22;10835;50.148;19.760;2023-04-28T09:23:35;25.20;27.60
21355;DHT22;10835;50.148;19.760;2023-04-28T09:26:13;25.30;27.30
21355;DHT22;10835;50.148;19.760;2023-04-28T09:28:42;24.90;28.20
21355;DHT22;10835;50.148;19.760;2023-04-28T09:31:22;24.60;28.40
21355;DHT22;10835;50.148;19.760;2023-04-28T09:33:57;24.90;28.50
21355;DHT22;10835;50.148;19.760;2023-04-28T09:36:26;25.20;28.80
21355;DHT22;10835;50.148;19.760;2023-04-28T09:38:57;24.80;28.20
21355;DHT22;10835;50.148;19.760;2023-04-28T09:41:35;25.50;28.30
21355;DHT22;10835;50.148;19.760;2023-04-28T09:44:16;26.00;28.40
21355;DHT22;10835;50.148;19.760;2023-04-28T09:46:47;26.60;27.50
21355;DHT22;10835;50.148;19.760;2023-04-28T09:49:15;26.80;27.20
21355;DHT22;10835;50.148;19.760;2023-04-28T09:51:43;27.10;26.60
21355;DHT22;10835;50.148;19.760;2023-04-28T09:54:12;27.60;26.00
21355;DHT22;10835;50.148;19.760;2023-04-28T09:56:42;27.70;26.80
21355;DHT22;10835;50.148;19.760;2023-04-28T09:59:11;27.00;27.70
21355;DHT22;10835;50.148;19.760;2023-04-28T10:01:42;27.50;26.70
21355;DHT22;10835;50.148;19.760;2023-04-28T10:04:11;27.00;26.60
21355;DHT22;10835;50.148;19.760;2023-04-28T10:06:40;27.40;27.50
21355;DHT22;10835;50.148;19.760;2023-04-28T10:09:08;27.40;27.60
21355;DHT22;10835;50.148;19.760;2023-04-28T10:11:38;28.10;26.30
21355;DHT22;10835;50.148;19.760;2023-04-28T10:14:06;28.50;26.40
21355;DHT22;10835;50.148;19.760;2023-04-28T10:16:35;28.70;26.80
21355;DHT22;10835;50.148;19.760;2023-04-28T10:19:05;28.80;27.20
21355;DHT22;10835;50.148;19.760;2023-04-28T10:21:36;29.20;28.10
21355;DHT22;10835;50.148;19.760;2023-04-28T10:24:11;29.50;25.30
21355;DHT22;10835;50.148;19.760;2023-04-28T10:27:07;29.70;26.10
21355;DHT22;10835;50.148;19.760;2023-04-28T10:29:36;29.70;25.60
21355;DHT22;10835;50.148;19.760;2023-04-28T10:32:21;29.90;25.00
21355;DHT22;10835;50.148;19.760;2023-04-28T10:38:10;29.10;26.40
21355;DHT22;10835;50.148;19.760;2023-04-28T10:40:40;28.80;26.70
21355;DHT22;10835;50.148;19.760;2023-04-28T10:43:10;28.30;25.60
21355;DHT22;10835;50.148;19.760;2023-04-28T10:46:12;27.80;26.10
21355;DHT22;10835;50.148;19.760;2023-04-28T10:48:54;27.70;26.60
21355;DHT22;10835;50.148;19.760;2023-04-28T10:51:27;27.80;26.30
21355;DHT22;10835;50.148;19.760;2023-04-28T10:54:15;27.60;26.50
21355;DHT22;10835;50.148;19.760;2023-04-28T10:57:17;27.30;27.90
21355;DHT22;10835;50.148;19.760;2023-04-28T10:59:46;27.60;27.80
21355;DHT22;10835;50.148;19.760;2023-04-28T11:02:48;28.10;27.00
21355;DHT22;10835;50.148;19.760;2023-04-28T11:05:17;28.10;27.10
21355;DHT22;10835;50.148;19.760;2023-04-28T11:11:18;28.90;26.20
21355;DHT22;10835;50.148;19.760;2023-04-28T11:13:47;29.00;26.60
21355;DHT22;10835;50.148;19.760;2023-04-28T11:16:17;29.30;25.90
21355;DHT22;10835;50.148;19.760;2023-04-28T11:18:56;29.30;26.20
21355;DHT22;10835;50.148;19.760;2023-04-28T11:21:26;29.20;26.50
21355;DHT22;10835;50.148;19.760;2023-04-28T11:23:56;29.50;25.80
21355;DHT22;10835;50.148;19.760;2023-04-28T11:26:26;28.90;26.60
21355;DHT22;10835;50.148;19.760;2023-04-28T11:28:56;28.60;25.80
21355;DHT22;10835;50.148;19.760;2023-04-28T11:31:25;28.40;25.30
21355;DHT22;10835;50.148;19.760;2023-04-28T11:34:02;28.50;27.60
21355;DHT22;10835;50.148;19.760;2023-04-28T11:36:33;28.00;27.40
21355;DHT22;10835;50.148;19.760;2023-04-28T11:39:03;27.90;28.70
21355;DHT22;10835;50.148;19.760;2023-04-28T11:41:35;28.50;26.90
21355;DHT22;10835;50.148;19.760;2023-04-28T11:44:11;28.80;26.20
21355;DHT22;10835;50.148;19.760;2023-04-28T11:46:46;29.20;27.60
21355;DHT22;10835;50.148;19.760;2023-04-28T11:49:20;29.20;25.30
21355;DHT22;10835;50.148;19.760;2023-04-28T11:51:53;29.40;26.10
21355;DHT22;10835;50.148;19.760;2023-04-28T11:54:23;29.60;25.20
21355;DHT22;10835;50.148;19.760;2023-04-28T11:56:56;29.20;25.00
21355;DHT22;10835;50.148;19.760;2023-04-28T11:59:28;29.40;26.20
21355;DHT22;10835;50.148;19.760;2023-04-28T12:01:57;29.20;25.90
21355;DHT22;10835;50.148;19.760;2023-04-28T12:04:28;28.30;26.00
21355;DHT22;10835;50.148;19.760;2023-04-28T12:07:04;28.20;26.50
21355;DHT22;10835;50.148;19.760;2023-04-28T12:09:33;28.60;28.00
21355;DHT22;10835;50.148;19.760;2023-04-28T12:12:04;28.80;26.80
21355;DHT22;10835;50.148;19.760;2023-04-28T12:14:53;29.30;26.00
21355;DHT22;10835;50.148;19.760;2023-04-28T12:17:23;29.90;26.40
21355;DHT22;10835;50.148;19.760;2023-04-28T12:19:55;30.20;26.60
21355;DHT22;10835;50.148;19.760;2023-04-28T12:22:26;30.20;25.40
21355;DHT22;10835;50.148;19.760;2023-04-28T12:25:04;29.40;24.30
21355;DHT22;10835;50.148;19.760;2023-04-28T12:27:36;29.20;25.80
21355;DHT22;10835;50.148;19.760;2023-04-28T12:30:25;29.60;24.70
21355;DHT22;10835;50.148;19.760;2023-04-28T12:32:53;29.10;25.00
21355;DHT22;10835;50.148;19.760;2023-04-28T12:35:24;28.90;24.60
21355;DHT22;10835;50.148;19.760;2023-04-28T12:37:53;28.90;25.40
21355;DHT22;10835;50.148;19.760;2023-04-28T12:40:22;28.20;26.00
21355;DHT22;10835;50.148;19.760;2023-04-28T12:42:54;28.00;26.10
21355;DHT22;10835;50.148;19.760;2023-04-28T12:45:23;28.30;26.70
21355;DHT22;10835;50.148;19.760;2023-04-28T12:47:51;28.50;26.50
21355;DHT22;10835;50.148;19.760;2023-04-28T12:50:19;28.40;25.60
21355;DHT22;10835;50.148;19.760;2023-04-28T12:52:48;28.50;26.40
21355;DHT22;10835;50.148;19.760;2023-04-28T12:55:16;28.90;26.30
21355;DHT22;10835;50.148;19.760;2023-04-28T12:57:44;28.40;26.30
21355;DHT22;10835;50.148;19.760;2023-04-28T13:00:14;29.00;26.70
21355;DHT22;10835;50.148;19.760;2023-04-28T13:02:43;29.40;26.20
21355;DHT22;10835;50.148;19.760;2023-04-28T13:05:12;29.70;25.80
21355;DHT22;10835;50.148;19.760;2023-04-28T13:07:41;29.30;27.20
21355;DHT22;10835;50.148;19.760;2023-04-28T13:10:10;29.60;26.80
21355;DHT22;10835;50.148;19.760;2023-04-28T13:12:39;29.50;26.40
21355;DHT22;10835;50.148;19.760;2023-04-28T13:15:09;29.70;25.90
21355;DHT22;10835;50.148;19.760;2023-04-28T13:17:39;30.10;25.70
21355;DHT22;10835;50.148;19.760;2023-04-28T13:20:08;29.30;26.60
21355;DHT22;10835;50.148;19.760;2023-04-28T13:22:36;29.20;26.00
21355;DHT22;10835;50.148;19.760;2023-04-28T13:25:06;29.40;27.10
21355;DHT22;10835;50.148;19.760;2023-04-28T13:27:35;29.20;26.70
21355;DHT22;10835;50.148;19.760;2023-04-28T13:30:04;28.90;26.70
21355;DHT22;10835;50.148;19.760;2023-04-28T13:32:34;28.80;27.40
21355;DHT22;10835;50.148;19.760;2023-04-28T13:35:05;28.90;27.40
21355;DHT22;10835;50.148;19.760;2023-04-28T13:37:34;29.50;25.80
21355;DHT22;10835;50.148;19.760;2023-04-28T13:40:09;29.90;25.20
21355;DHT22;10835;50.148;19.760;2023-04-28T13:42:38;29.40;25.30
21355;DHT22;10835;50.148;19.760;2023-04-28T13:45:06;30.10;25.50
21355;DHT22;10835;50.148;19.760;2023-04-28T13:47:35;29.90;25.20
21355;DHT22;10835;50.148;19.760;2023-04-28T13:50:05;30.30;25.00
21355;DHT22;10835;50.148;19.760;2023-04-28T13:52:34;30.30;26.00
21355;DHT22;10835;50.148;19.760;2023-04-28T13:55:02;30.00;26.30
21355;DHT22;10835;50.148;19.760;2023-04-28T13:57:30;30.10;25.80
21355;DHT22;10835;50.148;19.760;2023-04-28T13:59:59;30.20;26.40
21355;DHT22;10835;50.148;19.760;2023-04-28T14:02:33;29.90;25.70
21355;DHT22;10835;50.148;19.760;2023-04-28T14:05:06;30.60;25.70
21355;DHT22;10835;50.148;19.760;2023-04-28T14:07:34;30.70;25.20
21355;DHT22;10835;50.148;19.760;2023-04-28T14:10:03;30.50;25.50
21355;DHT22;10835;50.148;19.760;2023-04-28T14:12:32;30.90;25.60
21355;DHT22;10835;50.148;19.760;2023-04-28T14:15:00;31.00;24.60
21355;DHT22;10835;50.148;19.760;2023-04-28T14:17:28;31.00;24.10
21355;DHT22;10835;50.148;19.760;2023-04-28T14:19:56;31.00;24.20
21355;DHT22;10835;50.148;19.760;2023-04-28T14:22:29;30.30;24.90
21355;DHT22;10835;50.148;19.760;2023-04-28T14:25:00;30.30;24.90
21355;DHT22;10835;50.148;19.760;2023-04-28T14:27:28;30.70;25.40
21355;DHT22;10835;50.148;19.760;2023-04-28T14:29:57;30.90;24.90
21355;DHT22;10835;50.148;19.760;2023-04-28T14:32:25;31.00;24.50
21355;DHT22;10835;50.148;19.760;2023-04-28T14:34:53;31.00;24.70
21355;DHT22;10835;50.148;19.760;2023-04-28T14:37:21;31.10;24.70
21355;DHT22;10835;50.148;19.760;2023-04-28T14:39:52;31.20;24.40
21355;DHT22;10835;50.148;19.760;2023-04-28T14:42:20;31.10;24.40
21355;DHT22;10835;50.148;19.760;2023-04-28T14:44:48;31.00;24.90
21355;DHT22;10835;50.148;19.760;2023-04-28T14:47:19;31.10;24.50
21355;DHT22;10835;50.148;19.760;2023-04-28T14:49:48;31.20;24.60
21355;DHT22;10835;50.148;19.760;2023-04-28T14:52:16;30.70;24.70
21355;DHT22;10835;50.148;19.760;2023-04-28T14:54:47;30.50;24.90
21355;DHT22;10835;50.148;19.760;2023-04-28T14:57:17;29.80;25.20
21355;DHT22;10835;50.148;19.760;2023-04-28T14:59:48;30.60;25.70
21355;DHT22;10835;50.148;19.760;2023-04-28T15:02:18;30.80;24.80
21355;DHT22;10835;50.148;19.760;2023-04-28T15:04:47;31.00;24.30
21355;DHT22;10835;50.148;19.760;2023-04-28T15:07:16;31.10;24.40
21355;DHT22;10835;50.148;19.760;2023-04-28T15:09:46;30.90;24.30
21355;DHT22;10835;50.148;19.760;2023-04-28T15:12:14;31.00;24.40
21355;DHT22;10835;50.148;19.760;2023-04-28T15:14:44;31.00;25.30
21355;DHT22;10835;50.148;19.760;2023-04-28T15:17:13;31.00;25.00
21355;DHT22;10835;50.148;19.760;2023-04-28T15:19:41;31.10;25.20
21355;DHT22;10835;50.148;19.760;2023-04-28T15:22:09;31.10;24.40
21355;DHT22;10835;50.148;19.760;2023-04-28T15:24:40;31.00;24.70
21355;DHT22;10835;50.148;19.760;2023-04-28T15:27:08;31.00;24.40
21355;DHT22;10835;50.148;19.760;2023-04-28T15:29:37;30.90;24.80
21355;DHT22;10835;50.148;19.760;2023-04-28T15:32:07;30.80;25.00
21355;DHT22;10835;50.148;19.760;2023-04-28T15:34:35;30.70;24.80
21355;DHT22;10835;50.148;19.760;2023-04-28T15:37:40;30.80;24.80
21355;DHT22;10835;50.148;19.760;2023-04-28T15:40:10;30.80;24.40